Time;durP1;ratioP1;P1;durP2;ratioP2;P2;SDS_P1;SDS_P2;PMS_P1;PMS_P2;Temp;Humidity;BMP_temperature;BMP_pressure;BME280_temperature;BME280_humidity;BME280_pressure;Samples;Min_cycle;Max_cycle;Signal;HPM_P1;HPM_P2
2021/12/17 00:00:45;;;;;;;43.17;20.93;;;8.70;85.80;;;;;;5075833;28;20197;-75
2021/12/17 00:03:22;;;;;;;48.47;20.53;;;8.70;85.80;;;;;;5085083;28;20246;-76
2021/12/17 00:06:05;;;;;;;50.07;22.07;;;8.70;85.70;;;;;;5081053;28;20281;-75
2021/12/17 00:08:34;;;;;;;43.43;20.97;;;8.70;85.70;;;;;;5081912;28;20182;-75
2021/12/17 00:11:05;;;;;;;52.83;21.40;;;8.70;85.70;;;;;;5080229;28;20197;-75
2021/12/17 00:13:35;;;;;;;56.17;20.90;;;8.80;85.50;;;;;;5084005;28;20190;-75
2021/12/17 00:16:12;;;;;;;46.90;21.23;;;8.80;85.40;;;;;;5083174;28;20863;-75
2021/12/17 00:18:53;;;;;;;44.93;20.97;;;8.80;85.50;;;;;;5085336;28;20221;-76
2021/12/17 00:44:11;;;;;;;38.93;19.03;;;8.60;84.80;;;;;;5077632;28;20197;-76
2021/12/17 00:49:27;;;;;;;38.77;18.07;;;8.60;84.90;;;;;;5084047;28;20193;-75
2021/12/17 00:51:58;;;;;;;42.73;19.13;;;8.60;84.60;;;;;;5081861;28;20194;-75
2021/12/17 00:54:34;;;;;;;36.67;17.93;;;8.60;84.60;;;;;;5081431;28;20192;-76
2021/12/17 00:57:11;;;;;;;36.43;16.57;;;8.60;84.60;;;;;;5077597;28;20223;-76
2021/12/17 00:59:44;;;;;;;34.27;17.10;;;8.60;84.70;;;;;;5081043;28;20730;-76
2021/12/17 01:02:16;;;;;;;40.20;18.77;;;8.70;84.70;;;;;;5081004;28;20284;-76
2021/12/17 01:04:49;;;;;;;37.47;17.13;;;8.70;84.20;;;;;;5080963;28;20246;-76
2021/12/17 01:07:18;;;;;;;33.77;16.17;;;8.70;83.30;;;;;;5081671;28;20215;-76
2021/12/17 01:09:47;;;;;;;39.10;18.17;;;8.70;82.90;;;;;;5082783;28;20884;-76
2021/12/17 01:12:17;;;;;;;29.60;15.87;;;8.70;82.60;;;;;;5083346;28;20181;-76
2021/12/17 01:14:47;;;;;;;37.88;18.48;;;8.70;82.20;;;;;;5080093;28;20434;-76
2021/12/17 01:17:19;;;;;;;28.97;15.83;;;8.60;82.70;;;;;;5083050;28;20531;-76
2021/12/17 01:25:22;;;;;;;34.93;16.37;;;8.70;82.20;;;;;;5082412;28;20233;-76
2021/12/17 01:36:15;;;;;;;33.50;15.37;;;8.70;81.00;;;;;;5083173;28;20208;-75
2021/12/17 01:44:18;;;;;;;36.07;15.83;;;8.60;81.10;;;;;;5018668;28;20191;-76
2021/12/17 01:46:51;;;;;;;26.50;13.10;;;8.60;81.10;;;;;;5065302;28;20213;-76
2021/12/17 01:55:39;;;;;;;27.03;12.90;;;8.60;81.10;;;;;;5082917;28;20185;-75
2021/12/17 02:00:42;;;;;;;23.53;13.40;;;8.50;79.70;;;;;;5081189;28;20186;-76
2021/12/17 02:03:13;;;;;;;24.37;12.90;;;8.60;80.10;;;;;;5084195;28;20184;-76
2021/12/17 02:05:43;;;;;;;30.20;12.10;;;8.60;79.80;;;;;;5082635;28;20181;-76
2021/12/17 02:08:12;;;;;;;24.90;12.27;;;8.60;79.70;;;;;;5083306;28;20274;-75
2021/12/17 02:30:22;;;;;;;26.30;11.40;;;8.60;79.40;;;;;;5078325;28;20556;-76
2021/12/17 02:32:50;;;;;;;22.93;11.03;;;8.60;79.30;;;;;;5079958;28;20196;-76
2021/12/17 02:35:33;;;;;;;22.30;11.50;;;8.60;79.40;;;;;;5081428;28;20602;-76
2021/12/17 02:38:03;;;;;;;23.67;12.30;;;8.70;79.40;;;;;;5074273;28;20446;-76
2021/12/17 02:46:04;;;;;;;21.20;11.30;;;8.80;79.20;;;;;;5078763;28;20186;-76
2021/12/17 02:48:33;;;;;;;21.87;11.70;;;8.90;79.10;;;;;;5078210;28;20228;-76
2021/12/17 02:51:02;;;;;;;20.73;11.13;;;8.90;79.20;;;;;;5082433;28;20200;-76
2021/12/17 02:53:31;;;;;;;24.40;11.73;;;9.00;79.30;;;;;;5081109;28;20193;-76
2021/12/17 02:56:03;;;;;;;24.17;11.70;;;9.10;79.30;;;;;;5077292;28;20208;-76
2021/12/17 02:58:33;;;;;;;28.23;11.33;;;9.10;79.10;;;;;;5079767;28;20748;-77
2021/12/17 03:01:04;;;;;;;24.37;11.30;;;9.10;79.00;;;;;;5079963;28;20190;-75
2021/12/17 03:03:34;;;;;;;21.10;11.43;;;9.20;78.80;;;;;;5079896;28;20186;-75
2021/12/17 03:06:02;;;;;;;23.30;10.90;;;9.20;78.70;;;;;;5079098;28;20185;-75
2021/12/17 03:08:32;;;;;;;24.27;10.73;;;9.30;78.10;;;;;;5077931;28;20220;-75
2021/12/17 03:11:01;;;;;;;21.43;10.10;;;9.30;78.40;;;;;;5081988;28;20177;-75
2021/12/17 03:13:33;;;;;;;16.87;10.03;;;9.30;78.50;;;;;;5081942;28;20190;-75
2021/12/17 03:16:08;;;;;;;20.10;10.77;;;9.30;78.40;;;;;;5082647;28;20193;-75
2021/12/17 03:24:09;;;;;;;22.57;10.83;;;9.30;77.80;;;;;;5078429;28;20197;-76
2021/12/17 03:26:37;;;;;;;20.27;10.37;;;9.30;77.80;;;;;;5082833;28;20225;-76
2021/12/17 03:29:08;;;;;;;26.73;11.00;;;9.20;77.40;;;;;;5080048;28;20225;-76
2021/12/17 03:31:37;;;;;;;22.00;10.47;;;9.20;77.20;;;;;;5078648;28;20205;-75
2021/12/17 03:34:19;;;;;;;22.10;10.00;;;9.10;77.10;;;;;;5079672;28;20201;-76
2021/12/17 03:36:53;;;;;;;17.30;9.77;;;9.10;77.20;;;;;;5081216;28;20193;-76
2021/12/17 03:39:23;;;;;;;22.47;10.57;;;9.10;77.40;;;;;;5079193;28;20185;-76
2021/12/17 03:41:52;;;;;;;19.30;9.77;;;9.00;77.60;;;;;;5080134;28;20705;-75
2021/12/17 03:44:22;;;;;;;24.33;10.10;;;9.00;77.80;;;;;;5079711;28;20193;-75
2021/12/17 03:46:52;;;;;;;17.80;10.03;;;9.00;78.00;;;;;;5082279;28;20196;-75
2021/12/17 03:49:22;;;;;;;19.60;9.73;;;9.00;78.20;;;;;;5083476;28;20212;-76
2021/12/17 03:51:54;;;;;;;20.47;10.23;;;9.00;78.20;;;;;;5075321;28;20201;-75
2021/12/17 03:54:24;;;;;;;20.20;9.57;;;9.00;78.00;;;;;;5085435;28;20193;-75
2021/12/17 03:56:54;;;;;;;18.23;9.50;;;9.00;78.00;;;;;;5085959;28;20193;-75
2021/12/17 03:59:22;;;;;;;19.97;10.37;;;9.00;78.30;;;;;;5085408;28;20196;-74
2021/12/17 04:01:51;;;;;;;16.93;9.60;;;9.00;78.40;;;;;;5084289;28;20196;-74
2021/12/17 04:04:19;;;;;;;20.00;9.37;;;9.00;78.30;;;;;;5078832;28;20197;-75
2021/12/17 04:06:48;;;;;;;21.67;9.80;;;9.00;78.20;;;;;;5073690;28;20193;-75
2021/12/17 04:09:19;;;;;;;18.83;9.83;;;8.90;78.20;;;;;;5085299;28;20217;-75
2021/12/17 04:11:49;;;;;;;21.83;10.03;;;9.00;78.40;;;;;;5085578;28;20193;-76
2021/12/17 04:14:22;;;;;;;27.80;10.23;;;9.00;78.50;;;;;;5081762;28;20189;-76
2021/12/17 04:16:50;;;;;;;20.07;9.77;;;9.00;78.60;;;;;;5072341;28;20200;-76
2021/12/17 04:19:19;;;;;;;19.40;10.20;;;9.00;78.50;;;;;;5081811;28;20201;-77
2021/12/17 04:21:47;;;;;;;19.10;10.33;;;9.00;78.60;;;;;;5076688;28;20193;-75
2021/12/17 04:24:15;;;;;;;15.53;9.17;;;9.00;78.60;;;;;;5081382;28;20200;-75
2021/12/17 04:26:44;;;;;;;16.27;8.57;;;9.10;78.80;;;;;;5083333;28;20248;-76
2021/12/17 04:29:14;;;;;;;19.43;9.70;;;9.10;78.70;;;;;;5084170;28;20220;-75
2021/12/17 04:31:42;;;;;;;19.20;9.53;;;9.20;78.70;;;;;;5083083;28;20190;-75
2021/12/17 04:34:12;;;;;;;17.57;9.50;;;9.20;78.70;;;;;;5080632;28;20221;-75
2021/12/17 04:36:40;;;;;;;24.47;10.13;;;9.20;78.60;;;;;;5083536;28;20200;-75
2021/12/17 04:39:09;;;;;;;19.00;9.30;;;9.20;78.40;;;;;;5083109;28;20908;-75
2021/12/17 04:41:47;;;;;;;23.33;11.00;;;9.20;78.50;;;;;;5081063;28;21029;-75
2021/12/17 04:44:21;;;;;;;23.83;10.97;;;9.20;78.60;;;;;;5080960;28;20192;-76
2021/12/17 04:46:56;;;;;;;21.30;10.73;;;9.20;78.60;;;;;;5083000;28;20682;-76
2021/12/17 04:57:44;;;;;;;23.70;10.63;;;9.10;79.00;;;;;;5083493;28;20192;-75
2021/12/17 05:00:18;;;;;;;23.00;10.37;;;9.00;79.10;;;;;;5084419;28;20220;-76
2021/12/17 05:02:50;;;;;;;19.93;10.43;;;9.00;79.20;;;;;;5074110;28;20193;-75
2021/12/17 05:05:21;;;;;;;19.77;10.37;;;8.90;79.20;;;;;;5083460;28;20190;-76
2021/12/17 05:07:53;;;;;;;16.23;9.27;;;8.90;79.40;;;;;;5078710;28;20185;-76
2021/12/17 05:10:29;;;;;;;19.37;9.93;;;8.90;79.50;;;;;;5081479;28;20227;-79
2021/12/17 05:18:49;;;;;;;18.90;10.07;;;8.70;79.30;;;;;;5034193;28;20196;-75
2021/12/17 05:21:21;;;;;;;18.80;10.07;;;8.70;79.50;;;;;;5077448;28;20825;-75
2021/12/17 05:23:51;;;;;;;20.40;9.70;;;8.60;79.50;;;;;;5079502;28;20185;-75
2021/12/17 05:26:22;;;;;;;17.60;10.13;;;8.60;79.80;;;;;;5083352;28;20228;-75
2021/12/17 05:28:53;;;;;;;22.50;10.77;;;8.60;80.00;;;;;;5084342;28;20766;-75
2021/12/17 05:31:23;;;;;;;21.33;10.73;;;8.50;80.10;;;;;;5077433;28;20186;-75
2021/12/17 05:33:53;;;;;;;22.97;11.33;;;8.50;80.10;;;;;;5079446;28;20198;-77
2021/12/17 05:36:21;;;;;;;25.67;12.10;;;8.40;80.30;;;;;;5079058;28;20275;-75
2021/12/17 05:38:50;;;;;;;26.77;13.27;;;8.40;80.50;;;;;;5082971;28;20211;-75
2021/12/17 05:41:19;;;;;;;26.50;13.33;;;8.30;80.70;;;;;;5077850;28;20197;-75
2021/12/17 05:43:55;;;;;;;34.30;15.50;;;8.30;80.90;;;;;;5078157;28;20196;-75
2021/12/17 05:46:37;;;;;;;35.43;15.57;;;8.20;81.10;;;;;;5083302;28;20196;-76
2021/12/17 05:49:06;;;;;;;35.43;15.50;;;8.10;81.40;;;;;;5079944;28;20224;-76
2021/12/17 05:51:34;;;;;;;33.57;15.60;;;8.10;81.60;;;;;;5079592;28;20193;-76
2021/12/17 05:54:03;;;;;;;34.37;17.30;;;8.10;81.80;;;;;;5081496;28;20189;-75
2021/12/17 05:56:31;;;;;;;32.43;15.40;;;8.00;82.00;;;;;;5080281;28;20216;-75
2021/12/17 05:58:59;;;;;;;37.37;16.97;;;8.00;82.10;;;;;;5077931;28;20192;-75
2021/12/17 06:01:29;;;;;;;36.77;16.37;;;8.00;82.40;;;;;;5081098;28;20203;-75
2021/12/17 06:03:57;;;;;;;36.30;16.10;;;8.00;82.50;;;;;;5083581;28;20896;-75
2021/12/17 06:06:27;;;;;;;30.70;15.33;;;8.00;82.50;;;;;;5083584;28;20199;-77
2021/12/17 06:08:56;;;;;;;37.78;18.55;;;8.00;82.70;;;;;;5082001;28;20966;-75
2021/12/17 06:11:26;;;;;;;36.23;17.50;;;8.00;83.10;;;;;;5081394;28;20193;-75
2021/12/17 06:13:54;;;;;;;42.07;18.17;;;7.90;83.10;;;;;;5083211;28;20220;-75
2021/12/17 06:16:22;;;;;;;31.77;17.40;;;8.00;83.10;;;;;;5075594;28;20190;-75
2021/12/17 06:18:52;;;;;;;32.83;16.77;;;8.00;83.10;;;;;;5081714;28;20193;-75
2021/12/17 06:21:21;;;;;;;36.87;17.17;;;8.00;83.20;;;;;;5082107;28;20631;-76
2021/12/17 06:23:49;;;;;;;45.50;18.67;;;8.00;83.20;;;;;;5082713;28;20192;-75
2021/12/17 06:26:18;;;;;;;34.30;17.40;;;8.00;83.10;;;;;;5081799;28;20231;-75
2021/12/17 06:28:49;;;;;;;31.30;15.80;;;8.10;83.30;;;;;;5078129;28;20196;-75
2021/12/17 06:31:19;;;;;;;40.07;17.40;;;8.10;83.30;;;;;;5081654;28;20193;-75
2021/12/17 06:33:48;;;;;;;35.00;17.00;;;8.10;83.20;;;;;;5084131;28;20199;-75
2021/12/17 06:36:18;;;;;;;35.93;17.80;;;8.20;83.30;;;;;;5083432;28;20251;-75
2021/12/17 06:38:46;;;;;;;38.93;18.23;;;8.20;83.20;;;;;;5083015;28;20673;-76
2021/12/17 06:41:15;;;;;;;34.00;16.67;;;8.20;83.20;;;;;;5084054;28;20556;-78
2021/12/17 06:43:44;;;;;;;44.00;18.17;;;8.20;83.20;;;;;;5074856;28;20197;-77
2021/12/17 06:46:20;;;;;;;39.97;18.20;;;8.30;83.20;;;;;;5084577;28;20197;-77
2021/12/17 06:48:55;;;;;;;33.17;16.30;;;8.30;83.10;;;;;;5082445;28;20204;-77
2021/12/17 06:59:53;;;;;;;36.80;17.70;;;8.30;82.80;;;;;;5079476;28;20196;-77
2021/12/17 07:10:45;;;;;;;41.97;18.67;;;8.30;82.90;;;;;;5043418;28;20221;-77
2021/12/17 07:21:38;;;;;;;50.27;21.57;;;8.20;83.20;;;;;;5078232;28;20192;-76
2021/12/17 07:32:49;;;;;;;43.47;20.60;;;8.20;83.60;;;;;;5086524;28;20196;-76
2021/12/17 07:40:57;;;;;;;39.00;18.60;;;8.20;83.90;;;;;;5087279;28;20185;-76
2021/12/17 07:43:36;;;;;;;44.37;19.70;;;8.10;83.80;;;;;;5085821;28;20193;-76
2021/12/17 07:46:07;;;;;;;40.93;17.80;;;8.20;84.10;;;;;;5084033;28;20196;-76
2021/12/17 07:48:36;;;;;;;41.97;19.60;;;8.20;84.10;;;;;;5085270;28;20186;-76
2021/12/17 07:51:07;;;;;;;45.80;19.97;;;8.20;84.20;;;;;;5082487;28;20217;-76
2021/12/17 07:53:40;;;;;;;40.57;20.50;;;8.20;84.20;;;;;;5103862;28;20185;-76
2021/12/17 07:56:12;;;;;;;45.03;19.30;;;8.20;84.50;;;;;;5097210;28;20560;-76
2021/12/17 07:58:41;;;;;;;38.63;19.27;;;8.20;84.40;;;;;;5077387;28;20196;-76
2021/12/17 08:01:11;;;;;;;40.87;19.83;;;8.30;84.40;;;;;;5082958;28;20744;-76
2021/12/17 08:03:40;;;;;;;40.57;19.47;;;8.30;84.40;;;;;;5104499;28;20208;-76
2021/12/17 08:06:09;;;;;;;38.63;18.93;;;8.30;84.20;;;;;;5086929;28;20558;-76
2021/12/17 08:08:37;;;;;;;39.50;18.33;;;8.30;84.40;;;;;;5084682;28;20196;-76
2021/12/17 08:11:07;;;;;;;36.40;17.73;;;8.30;84.20;;;;;;5082374;28;20228;-75
2021/12/17 08:13:37;;;;;;;44.13;19.63;;;8.30;84.20;;;;;;5082337;28;20191;-76
2021/12/17 08:16:30;;;;;;;40.97;17.90;;;8.30;84.20;;;;;;5087043;28;20236;-75
2021/12/17 08:23:09;;;;;;;40.27;18.80;;;8.30;84.20;;;;;;5084216;28;20185;-75
2021/12/17 08:24:56;;;;;;;49.00;21.30;;;8.30;84.50;;;;;;5078233;28;20225;-75
2021/12/17 08:27:30;;;;;;;44.50;21.33;;;8.40;84.70;;;;;;5081849;28;20182;-74
2021/12/17 08:32:51;;;;;;;38.67;19.73;;;8.40;84.80;;;;;;5070115;28;22023;-74
2021/12/17 08:35:20;;;;;;;44.13;20.43;;;8.50;84.70;;;;;;5083842;28;20204;-75
2021/12/17 08:37:49;;;;;;;44.53;20.00;;;8.50;84.70;;;;;;5084055;28;20192;-75
2021/12/17 08:40:17;;;;;;;44.90;20.90;;;8.50;84.70;;;;;;5083398;28;20254;-75
2021/12/17 08:42:46;;;;;;;43.73;20.30;;;8.60;84.60;;;;;;5083696;28;20182;-76
2021/12/17 08:45:15;;;;;;;39.70;18.23;;;8.60;84.60;;;;;;5079168;28;20220;-76
2021/12/17 08:47:44;;;;;;;38.03;18.60;;;8.60;84.40;;;;;;5082355;28;20205;-76
2021/12/17 08:50:13;;;;;;;40.80;19.40;;;8.60;84.20;;;;;;5066161;28;20209;-75
2021/12/17 08:52:42;;;;;;;39.20;19.47;;;8.60;84.40;;;;;;5083203;28;20193;-76
2021/12/17 08:55:11;;;;;;;36.07;19.00;;;8.50;84.50;;;;;;5081639;28;20553;-76
2021/12/17 08:57:41;;;;;;;44.13;20.03;;;8.40;84.70;;;;;;5083368;28;20667;-76
2021/12/17 09:00:14;;;;;;;43.07;19.40;;;8.40;85.00;;;;;;5079201;28;20182;-75
2021/12/17 09:02:43;;;;;;;36.43;18.60;;;8.40;85.10;;;;;;5081205;28;20814;-75
2021/12/17 09:05:12;;;;;;;39.30;21.60;;;8.30;85.20;;;;;;5082823;28;20864;-76
2021/12/17 09:07:40;;;;;;;36.00;17.83;;;8.30;85.80;;;;;;5081992;28;20201;-76
2021/12/17 09:10:11;;;;;;;37.20;18.87;;;8.30;85.70;;;;;;5078807;28;20551;-76
2021/12/17 09:12:41;;;;;;;40.60;19.43;;;8.30;85.80;;;;;;5082508;28;20205;-76
2021/12/17 09:15:10;;;;;;;43.13;22.07;;;8.30;85.90;;;;;;5081194;28;20216;-76
2021/12/17 09:17:38;;;;;;;46.93;23.90;;;8.30;86.00;;;;;;5082774;28;20186;-76
2021/12/17 09:20:10;;;;;;;39.90;19.70;;;8.30;86.30;;;;;;5075967;28;20193;-76
2021/12/17 09:22:38;;;;;;;40.50;20.03;;;8.30;86.20;;;;;;5079323;28;20205;-77
2021/12/17 09:25:08;;;;;;;47.07;19.57;;;8.30;86.20;;;;;;5077289;28;20216;-76
2021/12/17 09:27:37;;;;;;;45.30;20.93;;;8.30;86.20;;;;;;5082555;28;20205;-76
2021/12/17 09:30:10;;;;;;;43.10;21.20;;;8.40;86.40;;;;;;5083415;28;20846;-75
2021/12/17 09:32:39;;;;;;;43.50;20.63;;;8.40;86.40;;;;;;5081774;28;20206;-76
2021/12/17 09:35:11;;;;;;;41.57;20.83;;;8.40;86.40;;;;;;5082842;28;20193;-76
2021/12/17 09:37:40;;;;;;;39.43;20.03;;;8.40;86.60;;;;;;5081832;28;20193;-76
2021/12/17 09:40:11;;;;;;;45.50;21.40;;;8.40;86.60;;;;;;5078683;28;20189;-76
2021/12/17 09:42:42;;;;;;;34.40;19.73;;;8.40;86.60;;;;;;5083218;28;20807;-77
2021/12/17 09:45:12;;;;;;;45.57;21.57;;;8.40;86.80;;;;;;5081415;28;20188;-76
2021/12/17 09:47:41;;;;;;;39.57;19.93;;;8.40;87.10;;;;;;5094641;28;20205;-76
2021/12/17 09:50:12;;;;;;;42.20;19.70;;;8.40;87.30;;;;;;5063647;28;20202;-76
2021/12/17 09:52:41;;;;;;;41.27;19.37;;;8.40;87.20;;;;;;5076326;28;20213;-77
2021/12/17 09:55:10;;;;;;;40.70;19.97;;;8.40;87.30;;;;;;5081146;28;20197;-77
2021/12/17 09:57:38;;;;;;;42.17;20.70;;;8.40;87.50;;;;;;5076863;28;20577;-78
2021/12/17 10:00:10;;;;;;;40.10;20.10;;;8.30;88.20;;;;;;5077095;28;20198;-77
2021/12/17 10:02:39;;;;;;;43.97;22.33;;;8.30;87.50;;;;;;5078600;28;20430;-77
2021/12/17 10:05:08;;;;;;;38.77;19.53;;;8.30;88.10;;;;;;5078268;28;20819;-77
2021/12/17 10:07:38;;;;;;;42.50;20.20;;;8.30;88.00;;;;;;5079795;28;20201;-77
2021/12/17 10:10:07;;;;;;;42.57;21.23;;;8.30;87.90;;;;;;5081393;28;20195;-77
2021/12/17 10:12:37;;;;;;;41.03;19.43;;;8.40;88.00;;;;;;5081691;28;20225;-77
2021/12/17 10:15:08;;;;;;;36.23;17.67;;;8.40;87.90;;;;;;5078131;28;20917;-77
2021/12/17 10:17:51;;;;;;;42.80;18.77;;;8.40;87.70;;;;;;5080704;28;20182;-76
2021/12/17 10:20:20;;;;;;;37.20;17.77;;;8.30;87.70;;;;;;5082017;28;20181;-77
2021/12/17 10:22:58;;;;;;;37.37;18.83;;;8.40;88.00;;;;;;5081453;28;20197;-76
2021/12/17 10:25:28;;;;;;;31.20;17.37;;;8.40;88.20;;;;;;5098176;27;20743;-77
2021/12/17 10:28:00;;;;;;;39.63;19.43;;;8.40;88.20;;;;;;5122456;27;20260;-77
2021/12/17 10:30:31;;;;;;;36.10;18.00;;;8.40;88.30;;;;;;5118392;27;20184;-77
2021/12/17 10:33:02;;;;;;;37.90;20.43;;;8.40;88.30;;;;;;5116722;27;20746;-78
2021/12/17 10:35:32;;;;;;;38.53;19.50;;;8.40;88.50;;;;;;5119660;27;20180;-77
2021/12/17 10:38:04;;;;;;;37.73;19.33;;;8.40;88.60;;;;;;5122756;27;20196;-77
2021/12/17 10:40:36;;;;;;;38.63;19.57;;;8.50;88.80;;;;;;5121780;28;20707;-77
2021/12/17 10:43:15;;;;;;;40.00;18.83;;;8.50;88.80;;;;;;5121716;27;20199;-77
2021/12/17 10:45:59;;;;;;;37.15;18.98;;;8.60;88.70;;;;;;5123261;27;20430;-77
2021/12/17 10:48:33;;;;;;;33.87;17.43;;;8.60;88.80;;;;;;5124527;27;20184;-77
2021/12/17 10:51:34;;;;;;;31.67;17.20;;;8.60;88.60;;;;;;5122748;27;20175;-77
2021/12/17 10:54:15;;;;;;;36.97;16.93;;;8.60;88.50;;;;;;5074455;28;20192;-77
2021/12/17 10:56:46;;;;;;;32.77;16.67;;;8.70;88.60;;;;;;5123763;28;20194;-77
2021/12/17 10:59:18;;;;;;;32.20;17.17;;;8.70;88.70;;;;;;5123316;27;20215;-78
2021/12/17 11:01:49;;;;;;;34.83;17.17;;;8.80;88.70;;;;;;5124008;27;20196;-77
2021/12/17 11:04:23;;;;;;;34.33;17.30;;;8.80;88.50;;;;;;5126804;27;20181;-78
2021/12/17 11:06:54;;;;;;;33.67;17.23;;;8.80;88.40;;;;;;5122512;27;20186;-78
2021/12/17 11:09:42;;;;;;;28.70;15.40;;;8.90;88.40;;;;;;5126640;27;20234;-77
2021/12/17 11:12:28;;;;;;;32.13;16.40;;;9.00;88.50;;;;;;5126124;27;20203;-77
2021/12/17 11:15:09;;;;;;;33.43;15.97;;;9.00;88.20;;;;;;5127417;27;20180;-78
2021/12/17 11:17:39;;;;;;;31.17;16.47;;;9.10;88.10;;;;;;5125459;27;20184;-77
2021/12/17 11:20:12;;;;;;;29.77;15.73;;;9.10;87.90;;;;;;5127312;27;20214;-78
2021/12/17 11:22:44;;;;;;;29.07;15.43;;;9.10;88.30;;;;;;5126923;27;20210;-77
2021/12/17 11:25:15;;;;;;;29.67;13.93;;;9.20;87.40;;;;;;5125909;27;20223;-77
2021/12/17 11:27:43;;;;;;;30.03;15.00;;;9.20;87.50;;;;;;5127130;27;20365;-77
2021/12/17 11:30:14;;;;;;;32.77;16.23;;;9.30;87.50;;;;;;5126146;27;20184;-77
2021/12/17 11:32:45;;;;;;;27.20;14.60;;;9.30;87.60;;;;;;5126388;27;20201;-77
2021/12/17 11:35:15;;;;;;;28.63;14.53;;;9.30;87.20;;;;;;5123939;27;20181;-78
2021/12/17 11:37:46;;;;;;;29.33;15.67;;;9.30;87.20;;;;;;5126343;27;20849;-78
2021/12/17 11:40:27;;;;;;;27.57;15.20;;;9.30;87.30;;;;;;5125012;27;20795;-77
2021/12/17 11:43:14;;;;;;;30.80;14.57;;;9.30;87.10;;;;;;5125701;27;20795;-77
2021/12/17 11:45:44;;;;;;;28.57;15.33;;;9.30;87.10;;;;;;5125962;27;20184;-77
2021/12/17 11:48:18;;;;;;;29.67;15.47;;;9.40;87.00;;;;;;5126052;27;20186;-77
2021/12/17 11:51:00;;;;;;;33.00;17.50;;;9.40;86.90;;;;;;5124813;27;20415;-77
2021/12/17 11:53:33;;;;;;;29.17;15.40;;;9.30;86.90;;;;;;5125933;27;20266;-78
2021/12/17 11:56:05;;;;;;;28.00;14.60;;;9.30;87.10;;;;;;5126224;27;20188;-77
2021/12/17 11:58:53;;;;;;;25.03;14.13;;;9.30;87.20;;;;;;5124843;27;20189;-77
2021/12/17 12:01:48;;;;;;;28.70;15.30;;;9.30;86.80;;;;;;5123584;27;20184;-78
2021/12/17 12:04:37;;;;;;;24.73;13.97;;;9.30;86.70;;;;;;5126018;27;20185;-77
2021/12/17 12:07:07;;;;;;;27.23;13.87;;;9.30;86.50;;;;;;5115562;27;20196;-79
2021/12/17 12:09:57;;;;;;;24.83;13.70;;;9.20;86.60;;;;;;5130222;27;20180;-77
2021/12/17 12:12:52;;;;;;;25.50;13.80;;;9.20;86.60;;;;;;5128721;27;20783;-77
2021/12/17 12:15:33;;;;;;;31.80;15.73;;;9.20;86.40;;;;;;5124498;27;20192;-78
2021/12/17 12:18:18;;;;;;;31.97;15.93;;;9.10;86.40;;;;;;5126079;27;20184;-77
2021/12/17 12:21:04;;;;;;;31.90;15.83;;;9.20;86.60;;;;;;5124739;27;20207;-77
2021/12/17 12:23:55;;;;;;;26.33;15.87;;;9.20;86.80;;;;;;5125869;27;20188;-76
2021/12/17 12:26:41;;;;;;;28.10;16.37;;;9.30;86.90;;;;;;5105969;28;20985;-77
2021/12/17 12:29:13;;;;;;;28.37;15.37;;;9.30;86.30;;;;;;5114325;27;20187;-77
2021/12/17 12:31:56;;;;;;;28.60;15.00;;;9.30;86.20;;;;;;5125969;27;20176;-76
2021/12/17 12:34:37;;;;;;;24.67;14.47;;;9.30;86.30;;;;;;5125867;27;20191;-77
2021/12/17 12:37:27;;;;;;;27.20;14.00;;;9.30;86.30;;;;;;5124559;27;20184;-76
2021/12/17 12:40:18;;;;;;;29.40;16.00;;;9.40;86.30;;;;;;5122151;27;20191;-77
2021/12/17 12:42:55;;;;;;;26.60;14.43;;;9.40;86.20;;;;;;5123707;27;20195;-77
2021/12/17 12:45:31;;;;;;;26.20;13.83;;;9.40;86.10;;;;;;5125795;27;20184;-76
2021/12/17 12:48:01;;;;;;;27.60;14.63;;;9.40;85.90;;;;;;5124304;27;20239;-76
2021/12/17 12:50:32;;;;;;;29.77;15.33;;;9.40;86.10;;;;;;5123453;27;20181;-78
2021/12/17 12:53:09;;;;;;;26.27;14.27;;;9.40;85.90;;;;;;5125687;27;20219;-77
2021/12/17 12:55:40;;;;;;;25.30;14.37;;;9.40;85.90;;;;;;5122777;27;20680;-80
2021/12/17 12:58:11;;;;;;;28.03;13.50;;;9.40;85.50;;;;;;5126012;27;20181;-79
2021/12/17 13:00:45;;;;;;;23.97;12.87;;;9.40;85.30;;;;;;5122823;27;20897;-80
2021/12/17 13:03:16;;;;;;;24.57;12.93;;;9.50;85.20;;;;;;5125160;27;20185;-80
2021/12/17 13:05:47;;;;;;;27.43;12.70;;;9.40;84.80;;;;;;5119758;27;20192;-79
2021/12/17 13:08:17;;;;;;;29.33;14.77;;;9.40;84.90;;;;;;5124199;27;20203;-79
2021/12/17 13:10:49;;;;;;;25.93;13.33;;;9.50;85.10;;;;;;5121352;27;20197;-79
2021/12/17 13:13:27;;;;;;;26.87;14.07;;;9.50;85.10;;;;;;5124376;27;20200;-80
2021/12/17 13:16:08;;;;;;;25.57;14.30;;;9.50;85.20;;;;;;5125188;27;20192;-77
2021/12/17 13:21:43;;;;;;;27.63;15.07;;;9.60;85.40;;;;;;5127596;27;20980;-77
2021/12/17 13:24:16;;;;;;;30.67;14.93;;;9.60;85.30;;;;;;5126827;27;20192;-77
2021/12/17 13:26:47;;;;;;;27.10;14.20;;;9.60;85.20;;;;;;5124584;27;20911;-77
2021/12/17 13:29:19;;;;;;;27.07;13.80;;;9.60;84.90;;;;;;5126662;27;20227;-77
2021/12/17 13:31:54;;;;;;;25.63;13.40;;;9.70;85.00;;;;;;5120142;27;20184;-80
2021/12/17 13:34:25;;;;;;;27.23;14.60;;;9.70;84.90;;;;;;5124885;27;20199;-76
2021/12/17 13:37:01;;;;;;;27.40;14.30;;;9.70;84.60;;;;;;5123009;27;20582;-77
2021/12/17 13:39:32;;;;;;;27.93;13.87;;;9.70;85.30;;;;;;5116539;27;20291;-77
2021/12/17 13:42:01;;;;;;;28.10;14.03;;;9.80;84.30;;;;;;5123756;27;20673;-76
2021/12/17 13:44:37;;;;;;;26.43;13.80;;;9.80;85.10;;;;;;5122667;27;20180;-76
2021/12/17 13:47:20;;;;;;;24.80;12.33;;;9.80;84.30;;;;;;5122700;27;20180;-77
2021/12/17 13:49:51;;;;;;;28.20;13.97;;;9.80;84.10;;;;;;5120546;27;20193;-77
2021/12/17 13:52:22;;;;;;;28.07;14.37;;;9.80;84.00;;;;;;5123975;27;20184;-77
2021/12/17 13:54:52;;;;;;;24.77;12.97;;;9.80;84.10;;;;;;5122361;27;20906;-77
2021/12/17 13:57:23;;;;;;;22.87;12.30;;;9.80;84.10;;;;;;5121121;27;20188;-77
2021/12/17 13:59:52;;;;;;;22.77;12.43;;;9.80;84.10;;;;;;5122574;27;20185;-77
2021/12/17 14:02:23;;;;;;;26.93;13.30;;;9.80;84.00;;;;;;5122696;27;20196;-76
2021/12/17 14:05:04;;;;;;;24.13;13.23;;;9.80;84.00;;;;;;5123225;27;20219;-77
2021/12/17 14:07:34;;;;;;;23.40;13.57;;;9.80;84.10;;;;;;5121943;27;20193;-77
2021/12/17 14:10:07;;;;;;;26.27;14.07;;;9.80;84.00;;;;;;5124256;27;20852;-77
2021/12/17 14:12:39;;;;;;;23.80;12.67;;;9.80;83.70;;;;;;5139544;27;20600;-77
2021/12/17 14:15:29;;;;;;;27.53;12.73;;;9.80;83.90;;;;;;5123040;27;20234;-78
2021/12/17 14:18:01;;;;;;;25.40;14.13;;;9.80;83.80;;;;;;5134397;27;20192;-77
2021/12/17 14:20:38;;;;;;;26.40;14.37;;;9.80;83.70;;;;;;5119215;27;20223;-77
2021/12/17 14:23:08;;;;;;;27.97;15.10;;;9.80;83.70;;;;;;5120371;27;20882;-76
2021/12/17 14:25:40;;;;;;;28.57;15.13;;;9.70;83.70;;;;;;5116893;27;20232;-77
2021/12/17 14:28:14;;;;;;;29.67;14.30;;;9.70;83.80;;;;;;5117270;27;20184;-77
2021/12/17 14:30:45;;;;;;;28.70;14.70;;;9.70;83.80;;;;;;5121361;27;20188;-77
2021/12/17 14:33:17;;;;;;;27.00;14.37;;;9.70;83.80;;;;;;5122254;27;20180;-77
2021/12/17 14:35:56;;;;;;;30.70;15.23;;;9.60;83.80;;;;;;5122683;27;20183;-77
2021/12/17 14:38:41;;;;;;;26.20;13.53;;;9.70;83.90;;;;;;5115985;27;20183;-77
2021/12/17 14:41:17;;;;;;;29.83;15.00;;;9.70;84.00;;;;;;5117213;27;20212;-78
2021/12/17 14:43:51;;;;;;;29.97;15.33;;;9.70;83.80;;;;;;5125179;27;20621;-78
2021/12/17 14:46:24;;;;;;;26.37;14.07;;;9.70;83.80;;;;;;5121734;27;20219;-78
2021/12/17 14:49:24;;;;;;;31.20;16.57;;;9.70;83.70;;;;;;5120441;28;20769;-77
2021/12/17 15:03:07;;;;;;;36.87;17.80;;;9.70;84.00;;;;;;5121612;27;20216;-77
2021/12/17 15:05:37;;;;;;;34.67;18.17;;;9.70;83.80;;;;;;5119899;27;20188;-77
2021/12/17 15:08:06;;;;;;;32.67;16.23;;;9.70;83.80;;;;;;5122151;28;20185;-77
2021/12/17 15:10:34;;;;;;;29.63;15.87;;;9.70;83.80;;;;;;5121168;27;20871;-78
2021/12/17 15:13:05;;;;;;;29.77;15.47;;;9.70;83.80;;;;;;5120733;28;20184;-78
2021/12/17 15:15:36;;;;;;;32.27;16.87;;;9.60;83.80;;;;;;5120300;27;20197;-78
2021/12/17 15:18:07;;;;;;;34.77;16.57;;;9.60;84.00;;;;;;5121877;27;20185;-79
2021/12/17 15:20:38;;;;;;;32.67;17.07;;;9.60;83.90;;;;;;5121546;28;20177;-78
2021/12/17 15:23:08;;;;;;;35.63;17.60;;;9.60;84.10;;;;;;5119035;27;20295;-78
2021/12/17 15:25:39;;;;;;;31.47;16.70;;;9.60;84.20;;;;;;5121244;27;20280;-79
2021/12/17 15:28:09;;;;;;;36.80;17.10;;;9.60;84.30;;;;;;5119830;27;20192;-78
2021/12/17 15:30:41;;;;;;;38.57;17.47;;;9.60;84.30;;;;;;5122023;27;20197;-78
2021/12/17 15:33:10;;;;;;;34.83;17.40;;;9.60;84.40;;;;;;5121064;28;20191;-77
2021/12/17 15:35:42;;;;;;;37.03;18.70;;;9.60;84.30;;;;;;5109674;27;20260;-79
2021/12/17 15:38:12;;;;;;;38.20;18.40;;;9.60;84.10;;;;;;5119681;28;20193;-77
2021/12/17 15:40:42;;;;;;;34.17;17.60;;;9.60;84.20;;;;;;5123055;27;20790;-78
2021/12/17 15:43:12;;;;;;;39.07;18.50;;;9.70;84.20;;;;;;5122634;27;20214;-78